Tiempo atmosférico en la estación meteorológica de Benavente, Zamora (715 m.)

Fecha
DESCASC
Temp. máxima en grados centígrados (hora)
DESCASC
Temp. mínima en grados centígrados (hora)
DESCASC
Temp. media en grados centígrados
DESCASC
Racha de viento máxima en m/sg (hora)
DESCASC
Velocidad máxima media en intervalos de 10 minutos(hora)
DESCASC
Precipitaciones diarias en mm
DESCASC
Precipitaciones de 00:00 a 06:00 en mm
DESCASC
Precipitaciones de 06:00 a 12:00 en mm
DESCASC
Precipitaciones de 12:00 a 18:00 en mm
DESCASC
Precipitaciones de 18:00 a 24:00 en mm
DESCASC
21-08-2017 37.1 (18:00) 13.8 (07:20) 25.4 6.39 (08:40) 3.33 (09:40) 0 0 0 0 0
20-08-2017 31.8 (17:50) 13.1 (07:20) 22.4 8.61 (00:10) 4.44 (17:20) 0 0 0 0 0
19-08-2017 30.9 (19:00) 15.2 (07:40) 23 10 (23:20) 4.72 (11:00) 0 0 0 0 0
18-08-2017 31.4 (17:10) 16.6 (07:30) 24 10.83 (23:10) 5.28 (23:10) 0 0 0 0 0
17-08-2017 35 (19:10) 16.7 (00:00) 25.9 8.33 (00:10) 4.17 (00:20) 0 0 0 0 0
16-08-2017 31.4 (18:30) 14.7 (00:00) 23 8.33 (23:40) 4.17 (23:59) 0 0 0 0 0
15-08-2017 32.4 (17:40) 17.5 (00:00) 25 11.39 (16:20) 5.28 (17:00) 0 0 0 0 0
14-08-2017 34.3 (16:30) 13.7 (07:30) 24 9.72 (19:00) 4.44 (17:30) 0 0 0 0 0
13-08-2017 33 (19:30) 14 (00:00) 23.5 7.5 (01:30) 3.61 (09:10) 0 0 0 0 0
12-08-2017 29.9 (19:00) 10.7 (00:00) 20.3 8.33 (01:40) 2.78 (10:00) 0 0 0 0 0
11-08-2017 27.3 (19:50) 10.3 (00:00) 18.8 8.33 (00:20) 3.33 (00:20) 0 0 0 0 0
10-08-2017 24.5 (18:10) 6.7 (00:00) 15.6 8.89 (23:30) 5 (23:30) 0 0 0 0 0
09-08-2017 21.7 (15:50) 9.6 (00:00) 15.7 13.33 (19:20) 6.39 (18:30) 0 0 0 0 0
08-08-2017 25 (17:40) 11.3 (00:00) 18.2 8.89 (23:10) 5 (23:00) 0 0 0 0 0
07-08-2017 29.5 (16:10) 12.6 (00:00) 21.1 12.22 (22:00) 5.56 (22:10) 0 0 0 0 0
06-08-2017 28.6 (18:50) 13.8 (00:00) 21.2 12.5 (08:50) 6.11 (12:20) 0 0 0 0 0
05-08-2017 33.9 (18:50) 17.2 (00:00) 25.6 13.06 (20:10) 6.67 (20:00) 0 0 0 0 0
04-08-2017 36.4 (18:10) 17.6 (00:00) 27 10 (18:00) 4.72 (17:30) 0 0 0 0 0
03-08-2017 -- (--) -- (--) -- -- (--) -- (--) -- -- -- -- --
02-08-2017 -- (--) -- (--) -- -- (--) -- (--) -- 0 -- -- --
01-08-2017 30.2 (18:40) 14 (00:00) 22.1 7.78 (15:10) 4.17 (19:50) 0 0 0 0 0
31-07-2017 24.5 (18:50) 13.3 (00:00) 18.9 6.67 (20:00) 3.33 (20:00) 0 0 0 0 0
30-07-2017 30.7 (17:30) 14.8 (00:00) 22.8 10.83 (17:20) 4.72 (18:10) 0 0 0 0 0
29-07-2017 33.7 (16:50) 16.3 (00:00) 25 11.67 (18:20) 5.28 (18:00) 0 0 0 0 0
28-07-2017 34.2 (18:10) 15.1 (00:00) 24.7 7.78 (23:00) 3.89 (23:40) 0 0 0 0 0
27-07-2017 35.1 (17:30) 15 (00:00) 25 10 (19:00) 4.72 (19:00) 0 0 0 0 0
26-07-2017 33 (18:50) 13.6 (00:00) 23.3 10 (21:00) 4.72 (21:10) 0 0 0 0 0
25-07-2017 28.3 (18:40) 12 (00:00) 20.1 8.89 (23:20) 4.72 (00:10) 0 0 0 0 0
24-07-2017 28.7 (17:50) 14.3 (00:00) 21.5 10.28 (19:10) 6.11 (20:10) 0 0 0 0 0
23-07-2017 30.8 (18:30) 13 (00:00) 21.9 12.78 (22:30) 6.11 (22:20) 0 0 0 0 0

Gráficas

Temp. máximas Temp. mínimas Temp. medias Precipitaciones Rachas de viento máximas Velocidades máximas media en intervalos de 10 minutos

Datos horarios

Fecha y hora oficial Temperatura (ºC) Velocidad del viento (km/h) Dirección del viento Racha (km/h) Dirección de racha Precipitación (mm) Presión (hPa) Tendencia (hPa) Humedad (%)
2017-08-21 23:00:00 31.1 8 Sudoeste 13 Sudoeste 0 933.7 0.9 22
2017-08-21 22:00:00 30.2 3 Sudoeste 6 Sur 0 933.3 0.2 26
2017-08-21 21:00:00 32.6 0 Calma 10 Este 0 933 -0.5 24
2017-08-21 20:00:00 34.8 5 Este 19 Sudeste 0 932.8 -1.2 17
2017-08-21 19:00:00 36.6 9 Sur 19 Sudeste 0 933.1 -1.5 13
2017-08-21 18:00:00 37.1 7 Sur 18 Sudoeste 0 933.5 -1.9 13
2017-08-21 17:00:00 36.6 6 Sur 18 Sur 0 934 -2 13
2017-08-21 16:00:00 35.3 5 Oeste 17 Este 0 934.6 -2.2 13
2017-08-21 15:00:00 33.8 7 Este 17 Nordeste 0 935.4 -1.8 16
2017-08-21 14:00:00 31.8 7 Este 16 Nordeste 0 936 -1.9 18
2017-08-21 13:00:00 29.4 6 Este 17 Nordeste 0 936.8 -1.1 21
2017-08-21 12:00:00 26.9 9 Nordeste 20 Nordeste 0 937.2 -0.8 23
2017-08-21 11:00:00 25.1 5 Nordeste 12 Nordeste 0 937.9 -0.2 27
2017-08-21 10:00:00 21.5 5 Norte 22 Norte 0 937.9 -0.2 42
2017-08-21 09:00:00 18 9 Norte 23 Norte 0 938 -0.3 54
2017-08-21 08:00:00 15.3 6 Nordeste 16 Noroeste 0 938.1 -0.6 63
2017-08-21 07:00:00 14.1 5 Norte 15 Nordeste 0 938.1 -0.5 68
2017-08-21 06:00:00 16.1 6 Nordeste 20 Noroeste 0 938.3 -0.7 59
2017-08-21 05:00:00 17.4 4 Noroeste 16 Norte 0 938.7 -0.4 55
2017-08-21 04:00:00 18.7 10 Norte 15 Norte 0 938.6 -0.4 48
2017-08-21 03:00:00 20.1 5 Norte 11 Este 0 939 -0.4 42
2017-08-21 02:00:00 20.7 5 Norte 16 Nordeste 0 939.1 -0.1 38
2017-08-21 01:00:00 21.9 8 Nordeste 16 Nordeste 0 939 0.1 33
2017-08-21 00:00:00 22.4 5 Norte 15 Nordeste 0 939.4 1.1 31
2017-08-20 23:00:00 23.5 6 Este 16 Este 0 939.2 1.1 30
2017-08-20 22:00:00 24.3 4 Nordeste 9 Nordeste 0 938.9 0.4 28
2017-08-20 21:00:00 28.7 3 Nordeste 15 Este 0 938.3 -0.7 22
2017-08-20 20:00:00 30.8 7 Este 25 Nordeste 0 938.1 -1.3 17
2017-08-20 19:00:00 31.6 12 Este 28 Nordeste 0 938.5 -1.5 15
2017-08-20 18:00:00 31.6 13 Este 28 Este 0 939 -1.6 15
2017-08-20 17:00:00 31.1 14 Este 29 Nordeste 0 939.4 -1.6 16
2017-08-20 16:00:00 30.5 13 Este 29 Nordeste 0 940 -1.5 16
2017-08-20 15:00:00 29.2 13 Este 28 Nordeste 0 940.6 -1.2 16
2017-08-20 14:00:00 27.3 9 Nordeste 28 Nordeste 0 941 -1 16
2017-08-20 13:00:00 25.8 11 Este 27 Este 0 941.5 -0.4 19
2017-08-20 12:00:00 24.3 11 Este 27 Este 0 941.8 -0.1 17
2017-08-20 11:00:00 20.7 11 Nordeste 21 Nordeste 0 942 0.3 34
2017-08-20 10:00:00 17.7 9 Nordeste 19 Norte 0 941.9 0.5 56
2017-08-20 09:00:00 15.5 9 Norte 15 Norte 0 941.9 0.7 64
2017-08-20 08:00:00 13.6 7 Norte 15 Norte 0 941.7 0.5 71
2017-08-20 07:00:00 13.3 5 Norte 12 Nordeste 0 941.4 0.2 72
2017-08-20 06:00:00 13.9 5 Nordeste 17 Nordeste 0 941.2 0.2 70
2017-08-20 05:00:00 14.7 8 Nordeste 19 Nordeste 0 941.2 0.1 66
2017-08-20 04:00:00 15.4 12 Nordeste 20 Nordeste 0 941.2 0.4 64
2017-08-20 03:00:00 16 7 Nordeste 19 Este 0 941 0.7 68
2017-08-20 02:00:00 16.8 8 Nordeste 26 Nordeste 0 941.1 1.6 66
2017-08-20 01:00:00 18.4 9 Nordeste 31 Este 0 940.8 2.3 62
2017-08-20 00:00:00 20.5 14 Nordeste 36 Nordeste 0 940.3 2.5 54
2017-08-19 23:00:00 22.7 15 Este 29 Este 0 939.5 2 43
2017-08-19 22:00:00 23.8 6 Nordeste 12 Este 0 938.5 1.1 32
2017-08-19 21:00:00 27.4 4 Nordeste 10 Este 0 937.8 0.2 25
2017-08-19 20:00:00 29.7 4 Nordeste 15 Nordeste 0 937.5 -0.6 14
2017-08-19 19:00:00 30.8 5 Norte 17 Nordeste 0 937.4 -1.2 13
2017-08-19 18:00:00 30.5 4 Norte 16 Este 0 937.6 -1.3 18
2017-08-19 17:00:00 29.4 5 Nordeste 19 Norte 0 938.1 -1 25
2017-08-19 16:00:00 28.7 5 Norte 21 Norte 0 938.6 -1 31
2017-08-19 15:00:00 26.8 10 Nordeste 23 Nordeste 0 938.9 -1 37
2017-08-19 14:00:00 25.7 8 Nordeste 23 Norte 0 939.1 -0.9 41
2017-08-19 13:00:00 24.6 8 Norte 24 Norte 0 939.6 -0.5 44
2017-08-19 12:00:00 22.9 11 Nordeste 27 Este 0 939.9 -0.2 49
2017-08-19 11:00:00 20.7 17 Nordeste 30 Nordeste 0 940 0.5 57
2017-08-19 10:00:00 19.4 16 Nordeste 28 Este 0 940.1 1.1 62
2017-08-19 09:00:00 17.3 10 Norte 23 Norte 0 940.1 1.4 73
2017-08-19 08:00:00 15.6 8 Norte 15 Norte 0 939.5 0.5 80
2017-08-19 07:00:00 15.4 7 Norte 15 Nordeste 0 939 0.2 81
2017-08-19 06:00:00 15.7 8 Nordeste 12 Nordeste 0 938.7 -0.1 80
2017-08-19 05:00:00 16.2 6 Nordeste 16 Nordeste 0 939 0.3 79
2017-08-19 04:00:00 16.7 8 Nordeste 18 Nordeste 0 938.8 0 77
2017-08-19 03:00:00 17.2 8 Nordeste 14 Este 0 938.8 -0.1 75
2017-08-19 02:00:00 18.2 8 Nordeste 19 Nordeste 0 938.7 0.4 71
2017-08-19 01:00:00 19.3 7 Nordeste 33 Este 0 938.8 1.3 64
2017-08-19 00:00:00 20.8 13 Nordeste 39 Este 0 938.9 2.7 59
2017-08-18 23:00:00 22.6 11 Nordeste 31 Nordeste 0 938.3 2.4 50
2017-08-18 22:00:00 24.7 11 Nordeste 25 Este 0 937.5 1.7 43
2017-08-18 21:00:00 27.1 7 Norte 14 Norte 0 936.2 0.1 31
2017-08-18 20:00:00 28.7 5 Nordeste 21 Nordeste 0 935.9 -0.7 29
2017-08-18 19:00:00 29.9 12 Este 22 Norte 0 935.8 -1.2 25
2017-08-18 18:00:00 30.5 9 Este 27 Norte 0 936.1 -1.1 23
2017-08-18 17:00:00 31.1 11 Norte 26 Norte 0 936.6 -1 24
2017-08-18 16:00:00 30.3 7 Norte 27 Norte 0 937 -0.8 25
2017-08-18 15:00:00 30.2 9 Norte 25 Norte 0 937.2 -0.8 22
2017-08-18 14:00:00 28.5 13 Norte 28 Noroeste 0 937.6 -0.2 28
2017-08-18 13:00:00 27.5 8 Norte 22 Noroeste 0 937.8 -0.3 30
2017-08-18 12:00:00 26.3 13 Norte 30 Norte 0 938 0.2 34
2017-08-18 11:00:00 24.5 9 Norte 30 Noroeste 0 937.8 0.4 40
2017-08-18 10:00:00 21.3 13 Noroeste 27 Noroeste 0 938.1 1.2 55
2017-08-18 09:00:00 18.2 6 Noroeste 13 Noroeste 0 937.8 1.2 70
2017-08-18 08:00:00 16.8 6 Noroeste 13 Norte 0 937.4 0.8 75
2017-08-18 07:00:00 17.1 6 Norte 19 Norte 0 936.9 0.2 75
2017-08-18 06:00:00 17.4 8 Noroeste 16 Noroeste 0 936.6 -0.2 70
2017-08-18 05:00:00 18.2 7 Norte 15 Norte 0 936.6 -0.4 63
2017-08-18 04:00:00 19.4 9 Norte 18 Norte 0 936.7 -0.3 55
2017-08-18 03:00:00 18.7 7 Norte 18 Nordeste 0 936.8 -0.3 54
2017-08-18 02:00:00 20.4 4 Norte 8 Nordeste 0 937 0.2 43
2017-08-18 01:00:00 21.9 0 Calma 11 Noroeste 0 937 0.9 36
2017-08-18 00:00:00 23.9 3 Este 19 Noroeste 0 937.1 1.4 32
2017-08-17 23:00:00 26 6 Noroeste 18 Noroeste 0 936.8 1.4 29
2017-08-17 22:00:00 28.2 9 Noroeste 22 Norte 0 936.1 0.6 29
2017-08-17 21:00:00 31.2 5 Noroeste 15 Oeste 0 935.7 -0.2 27
2017-08-17 20:00:00 34.4 7 Sudoeste 19 Sudoeste 0 935.4 -1.1 17
2017-08-17 19:00:00 34.8 12 Sur 24 Sur 0 935.5 -1.5 16
2017-08-17 18:00:00 34.6 5 Sur 20 Sudeste 0 935.9 -1.8 19
2017-08-17 17:00:00 33.4 5 Sur 20 Sudoeste 0 936.5 -1.9 21
2017-08-17 16:00:00 32.7 5 Sudoeste 20 Sur 0 937 -1.9 22
2017-08-17 15:00:00 31.5 5 Noroeste 18 Sudoeste 0 937.7 -1.7 25
2017-08-17 14:00:00 30 5 Sur 14 Este 0 938.4 -1.2 29
2017-08-17 13:00:00 27.7 3 Noroeste 18 Nordeste 0 938.9 -1 34
2017-08-17 12:00:00 25.6 6 Noroeste 18 Norte 0 939.4 -0.4 42
2017-08-17 11:00:00 23.3 9 Nordeste 19 Norte 0 939.6 0.3 49
2017-08-17 10:00:00 21 8 Norte 21 Nordeste 0 939.9 0.6 57
2017-08-17 09:00:00 18.7 8 Norte 15 Norte 0 939.8 0.7 65
2017-08-17 08:00:00 17.2 6 Nordeste 14 Norte 0 939.3 0.1 70
2017-08-17 07:00:00 17.3 7 Norte 16 Norte 0 939.3 0.1 65
2017-08-17 06:00:00 17.4 8 Norte 15 Norte 0 939.1 -0.2 63
2017-08-17 05:00:00 18 8 Norte 16 Nordeste 0 939.2 -0.3 64
2017-08-17 04:00:00 18.4 8 Nordeste 21 Nordeste 0 939.2 -0.1 59
2017-08-17 03:00:00 19 8 Nordeste 20 Nordeste 0 939.3 0.4 59
2017-08-17 02:00:00 20.3 8 Nordeste 22 Este 0 939.5 0.7 55
2017-08-17 01:00:00 22.1 10 Nordeste 30 Noroeste 0 939.3 0.9 52
2017-08-17 00:00:00 24.2 15 Noroeste 30 Noroeste 0 938.9 1.1 44
2017-08-16 23:00:00 25.3 10 Noroeste 23 Noroeste 0 938.8 1.2 38
2017-08-16 22:00:00 25.1 3 Norte 6 Norte 0 938.4 0.5 36
2017-08-16 21:00:00 28.5 3 Este 13 Nordeste 0 937.8 -0.2 31
2017-08-16 20:00:00 30.5 4 Sudeste 15 Sudeste 0 937.6 -0.6 23
2017-08-16 19:00:00 31.3 8 Sur 18 Sur 0 937.9 -1 21
2017-08-16 18:00:00 30.8 5 Sur 21 Sur 0 938 -1.1 20
2017-08-16 17:00:00 30 6 Sur 20 Sudoeste 0 938.2 -1.4 20
2017-08-16 16:00:00 29.1 5 Oeste 18 Sur 0 938.9 -1.3 22
2017-08-16 15:00:00 28.1 5 Sudoeste 16 Sur 0 939.1 -1.2 22
2017-08-16 14:00:00 26.6 5 Sur 17 Sudoeste 0 939.6 -0.7 32
2017-08-16 13:00:00 24.7 3 Sudeste 15 Nordeste 0 940.2 0.1 41
2017-08-16 12:00:00 22.5 6 Este 17 Este 0 940.3 0.2 49
2017-08-16 11:00:00 20.9 8 Nordeste 17 Nordeste 0 940.3 0.5 56
2017-08-16 10:00:00 19.2 4 Nordeste 12 Nordeste 0 940.1 0.6 64
2017-08-16 09:00:00 17.6 6 Nordeste 13 Nordeste 0 940.1 1.1 71
2017-08-16 08:00:00 15.3 4 Norte 9 Noroeste 0 939.8 0.6 79
2017-08-16 07:00:00 14.8 4 Noroeste 7 Noroeste 0 939.5 0.5 78
2017-08-16 06:00:00 15.6 0 Calma 5 Nordeste 0 939 0.1 76
2017-08-16 05:00:00 16.1 4 Norte 9 Norte 0 939.2 0.4 74
2017-08-16 04:00:00 16.7 4 Norte 9 Norte 0 939 0.4 73
2017-08-16 03:00:00 17.4 3 Nordeste 10 Este 0 938.9 0.3 71
2017-08-16 02:00:00 17.9 6 Nordeste 16 Nordeste 0 938.8 0.9 70
2017-08-16 01:00:00 19 8 Nordeste 15 Norte 0 938.6 1.3 65
2017-08-16 00:00:00 21.7 8 Nordeste 26 Noroeste 0 938.6 2.4 45
2017-08-15 23:00:00 23.3 13 Noroeste 29 Noroeste 0 937.9 2.6 39
2017-08-15 22:00:00 25 10 Noroeste 23 Noroeste 0 937.3 2.6 32
2017-08-15 21:00:00 27.7 12 Noroeste 28 Noroeste 0 936.2 1.5 26
2017-08-15 20:00:00 30.3 13 Oeste 36 Sudoeste 0 935.3 0.4 21
2017-08-15 19:00:00 31.7 12 Sudoeste 35 Oeste 0 934.7 -0.3 15
2017-08-15 18:00:00 31.5 16 Sudoeste 36 Sudoeste 0 934.7 -0.5 12
2017-08-15 17:00:00 31.2 19 Sudoeste 41 Sudoeste 0 934.9 -0.9 13
2017-08-15 16:00:00 31.7 16 Sudoeste 36 Sudoeste 0 935 -1.2 13
2017-08-15 15:00:00 31 15 Sur 32 Sudoeste 0 935.2 -1.2 16
2017-08-15 14:00:00 29.5 4 Noroeste 20 Sudoeste 0 935.8 -0.4 22
2017-08-15 13:00:00 26.9 7 Sur 22 Sur 0 936.2 0.1 32
2017-08-15 12:00:00 25.3 5 Sur 17 Nordeste 0 936.4 0.5 40
2017-08-15 11:00:00 22.5 6 Nordeste 14 Nordeste 0 936.2 1.1 53
2017-08-15 10:00:00 20.4 6 Norte 16 Noroeste 0 936.1 1.4 60
2017-08-15 09:00:00 18.3 5 Noroeste 10 Noroeste 0 935.9 1.5 67
2017-08-15 08:00:00 17.9 5 Norte 8 Norte 0 935.1 0.8 67
2017-08-15 07:00:00 17.6 4 Norte 9 Norte 0 934.7 0.3 67
2017-08-15 06:00:00 17.9 2 Sur 5 Sudeste 0 934.4 -0.1 62
2017-08-15 05:00:00 18.6 2 Sudoeste 10 Norte 0 934.3 -0.2 60
2017-08-15 04:00:00 18.5 5 Norte 9 Nordeste 0 934.4 0.3 58
2017-08-15 03:00:00 18 2 Norte 5 Noroeste 0 934.5 0.8 56
2017-08-15 02:00:00 19.4 3 Norte 7 Este 0 934.5 1 51
2017-08-15 01:00:00 21.7 2 Nordeste 8 Norte 0 934.1 1.4 43
2017-08-15 00:00:00 22.5 2 Norte 11 Nordeste 0 933.7 1.8 38
2017-08-14 23:00:00 25.5 6 Noroeste 15 Oeste 0 933.5 1.8 27
2017-08-14 22:00:00 28.1 7 Oeste 18 Oeste 0 932.7 1 23
2017-08-14 21:00:00 30.6 6 Oeste 16 Oeste 0 931.9 0.2 18
2017-08-14 20:00:00 31.6 8 Oeste 27 Noroeste 0 931.7 -0.1 17
2017-08-14 19:00:00 33.3 14 Oeste 35 Oeste 0 931.7 -0.5 16
2017-08-14 18:00:00 33.9 14 Oeste 33 Oeste 0 931.7 -1.2 14
2017-08-14 17:00:00 34.1 14 Oeste 32 Sudoeste 0 931.8 -1.7 14
2017-08-14 16:00:00 33.3 11 Sudoeste 29 Sudoeste 0 932.2 -1.6 18
2017-08-14 15:00:00 31.7 8 Sudoeste 21 Sur 0 932.9 -1.1 22
2017-08-14 14:00:00 30.3 6 Sur 12 Sur 0 933.5 -0.7 25
2017-08-14 13:00:00 28.1 4 Sur 13 Noroeste 0 933.8 -0.5 27
2017-08-14 12:00:00 24.8 5 Nordeste 12 Nordeste 0 934 -0.3 40
2017-08-14 11:00:00 22 4 Norte 14 Nordeste 0 934.2 0.4 48
2017-08-14 10:00:00 19.8 7 Nordeste 13 Nordeste 0 934.3 0.6 55
2017-08-14 09:00:00 17.1 4 Norte 8 Nordeste 0 934.3 0.9 63
2017-08-14 08:00:00 14.3 4 Norte 10 Este 0 933.8 0.1 73
2017-08-14 07:00:00 14.7 5 Nordeste 11 Nordeste 0 933.7 0 71
2017-08-14 06:00:00 16.2 4 Norte 13 Norte 0 933.4 -0.6 64
2017-08-14 05:00:00 17.1 7 Norte 13 Norte 0 933.7 -0.4 63
2017-08-14 04:00:00 16.1 4 Nordeste 9 Nordeste 0 933.7 -0.4 63
2017-08-14 03:00:00 16.9 5 Nordeste 9 Nordeste 0 934 0.4 59
2017-08-14 02:00:00 19.7 5 Norte 15 Norte 0 934.1 0.6 45
2017-08-14 01:00:00 21.4 10 Norte 20 Norte 0 934.1 0.8 37
2017-08-14 00:00:00 20.9 0 Calma 4 Norte 0 933.6 0.5 31
2017-08-13 23:00:00 22.2 0 Calma 4 Norte 0 933.5 0.4 30
2017-08-13 22:00:00 24.6 2 Norte 8 Sudeste 0 933.3 -0.1 27
2017-08-13 21:00:00 29.4 4 Sudeste 13 Este 0 933.1 -0.7 18
2017-08-13 20:00:00 31.4 6 Este 17 Sudeste 0 933.1 -1.2 15
2017-08-13 19:00:00 32.6 5 Sudeste 13 Sudeste 0 933.4 -1.5 13
2017-08-13 18:00:00 32.9 7 Sudoeste 23 Noroeste 0 933.8 -1.8 13
2017-08-13 17:00:00 32.3 5 Sudoeste 17 Sudoeste 0 934.3 -1.9 13
2017-08-13 16:00:00 31.8 7 Sudoeste 15 Oeste 0 934.9 -2 13
2017-08-13 15:00:00 30.2 6 Nordeste 22 Sudeste 0 935.6 -1.9 16
2017-08-13 14:00:00 28.6 6 Nordeste 18 Nordeste 0 936.2 -1.6 19
2017-08-13 13:00:00 26.7 7 Nordeste 20 Norte 0 936.9 -1 22
2017-08-13 12:00:00 24 7 Nordeste 19 Nordeste 0 937.5 -0.3 28
2017-08-13 11:00:00 21.6 6 Nordeste 19 Nordeste 0 937.8 0.3 34
2017-08-13 10:00:00 19.5 10 Nordeste 23 Nordeste 0 937.9 0.3 37
2017-08-13 09:00:00 16.5 9 Norte 20 Norte 0 937.8 0.1 53
2017-08-13 08:00:00 15 10 Norte 22 Norte 0 937.5 -0.3 51
2017-08-13 07:00:00 14.3 7 Norte 18 Norte 0 937.6 -0.3 55
2017-08-13 06:00:00 14.6 8 Noroeste 15 Noroeste 0 937.7 -0.4 50
2017-08-13 05:00:00 16.2 8 Norte 15 Norte 0 937.8 -0.6 42
2017-08-13 04:00:00 17 6 Norte 18 Nordeste 0 937.9 -0.4 47
2017-08-13 03:00:00 18.2 9 Nordeste 21 Nordeste 0 938.1 -0.2 43
2017-08-13 02:00:00 19.3 10 Nordeste 27 Nordeste 0 938.4 0.8 50
2017-08-13 01:00:00 20.5 10 Nordeste 19 Este 0 938.3 1 40
2017-08-13 00:00:00 20.5 6 Norte 21 Nordeste 0 938.3 1.1 38
2017-08-12 23:00:00 21 4 Norte 6 Norte 0 937.6 0.4 35
2017-08-12 22:00:00 23 2 Noroeste 6 Nordeste 0 937.3 -0.3 31
2017-08-12 21:00:00 26.8 4 Nordeste 11 Este 0 937.2 -0.7 25
2017-08-12 20:00:00 28.6 4 Sudeste 14 Este 0 937.2 -1.1 17
2017-08-12 19:00:00 29.9 6 Este 20 Sudeste 0 937.6 -1.4 14
2017-08-12 18:00:00 29.5 8 Este 21 Sudoeste 0 937.9 -1.8 14
2017-08-12 17:00:00 29 7 Nordeste 22 Este 0 938.3 -2.2 14
2017-08-12 16:00:00 29.1 5 Norte 19 Nordeste 0 939 -1.9 14
2017-08-12 15:00:00 27.7 3 Sur 16 Este 0 939.7 -1.7 14
2017-08-12 14:00:00 26 8 Este 18 Nordeste 0 940.5 -1 14
2017-08-12 13:00:00 24.4 7 Este 19 Norte 0 940.9 -0.5 13
2017-08-12 12:00:00 22.2 7 Nordeste 18 Norte 0 941.4 0 18
2017-08-12 11:00:00 20 5 Nordeste 20 Nordeste 0 941.5 0.3 28
2017-08-12 10:00:00 17.6 10 Nordeste 20 Nordeste 0 941.4 0.5 39
2017-08-12 09:00:00 15 6 Norte 10 Nordeste 0 941.4 0.7 60
2017-08-12 08:00:00 12.4 3 Nordeste 9 Norte 0 941.2 0.4 69
2017-08-12 07:00:00 11 4 Norte 10 Norte 0 940.9 -0.1 73
2017-08-12 06:00:00 12.3 3 Nordeste 12 Norte 0 940.7 -0.2 67
2017-08-12 05:00:00 13.5 8 Norte 13 Norte 0 940.8 -0.1 61
2017-08-12 04:00:00 14.3 5 Norte 9 Norte 0 941 0.2 60
2017-08-12 03:00:00 15.3 6 Nordeste 17 Este 0 940.9 0.4 57
2017-08-12 02:00:00 16.3 9 Nordeste 30 Nordeste 0 940.9 0.8 52
2017-08-12 01:00:00 17.4 8 Nordeste 17 Este 0 940.8 1.1 46
2017-08-12 00:00:00 18.6 7 Este 18 Este 0 940.5 1.3 38
2017-08-11 23:00:00 19.2 4 Nordeste 6 Nordeste 0 940.1 0.8 34
2017-08-11 22:00:00 22.1 2 Nordeste 8 Este 0 939.7 0.3 31
2017-08-11 21:00:00 25.6 5 Este 8 Este 0 939.2 -0.6 20
2017-08-11 20:00:00 26.6 4 Este 14 Este 0 939.3 -1.1 17
2017-08-11 19:00:00 26.5 9 Este 16 Este 0 939.4 -1.6 17
2017-08-11 18:00:00 26.7 6 Este 19 Este 0 939.8 -1.6 16
2017-08-11 17:00:00 25.6 8 Nordeste 17 Norte 0 940.4 -1.4 17
2017-08-11 16:00:00 24.5 7 Norte 22 Este 0 941 -1.3 20
2017-08-11 15:00:00 22.8 9 Este 17 Este 0 941.4 -1.3 29
2017-08-11 14:00:00 20.8 4 Sur 18 Este 0 941.8 -1.2 36
2017-08-11 13:00:00 19.5 6 Sudeste 17 Este 0 942.3 -0.9 41
2017-08-11 12:00:00 17.7 6 Sudeste 17 Sudeste 0 942.7 -0.2 45
2017-08-11 11:00:00 15.6 5 Este 17 Nordeste 0 943 0.1 56
2017-08-11 10:00:00 14.3 7 Nordeste 16 Nordeste 0 943.2 0.3 61
2017-08-11 09:00:00 13 5 Nordeste 11 Nordeste 0 942.9 0.2 65
2017-08-11 08:00:00 10.3 5 Norte 9 Norte 0 942.9 0 75
2017-08-11 07:00:00 11 5 Norte 10 Nordeste 0 942.9 -0.2 73
2017-08-11 06:00:00 11.4 2 Nordeste 10 Nordeste 0 942.7 -0.6 71
2017-08-11 05:00:00 11.3 5 Nordeste 13 Nordeste 0 942.9 -0.5 71
2017-08-11 04:00:00 11.6 4 Nordeste 11 Nordeste 0 943.1 -0.3 70
2017-08-11 03:00:00 12.3 5 Nordeste 21 Este 0 943.3 0.2 66
2017-08-11 02:00:00 12.9 7 Nordeste 16 Este 0 943.4 0.6 62
2017-08-11 01:00:00 14 6 Este 30 Este 0 943.4 1.6 57
2017-08-11 00:00:00 15.2 12 Este 32 Este 0 943.1 2 54
2017-08-10 23:00:00 17.1 14 Este 29 Nordeste 0 942.8 1.9 46
2017-08-10 22:00:00 18.5 11 Norte 25 Nordeste 0 941.8 0.7 37
2017-08-10 21:00:00 21.5 11 Norte 24 Norte 0 941.1 -0.3 31
2017-08-10 20:00:00 24.2 5 Sudeste 22 Nordeste 0 940.9 -0.9 24
2017-08-10 19:00:00 24.4 9 Nordeste 28 Nordeste 0 941.1 -1.5 22
2017-08-10 18:00:00 23.9 12 Nordeste 26 Este 0 941.4 -1.9 24
2017-08-10 17:00:00 23.7 7 Norte 19 Este 0 941.8 -1.7 26
2017-08-10 16:00:00 22.2 9 Este 25 Sudeste 0 942.6 -1.2 27
2017-08-10 15:00:00 21.6 6 Sur 19 Sudeste 0 943.3 -0.6 28
2017-08-10 14:00:00 20 8 Nordeste 21 Este 0 943.5 -0.3 31
2017-08-10 13:00:00 19.2 8 Sur 22 Norte 0 943.8 -0.1 36
2017-08-10 12:00:00 17.4 6 Este 27 Nordeste 0 943.9 0.1 40
2017-08-10 11:00:00 15.9 8 Nordeste 19 Nordeste 0 943.8 0.5 45
2017-08-10 10:00:00 13.4 4 Nordeste 11 Nordeste 0 943.9 0.7 51
2017-08-10 09:00:00 10.3 4 Sudeste 13 Noroeste 0 943.8 0.9 62
2017-08-10 08:00:00 7.3 5 Noroeste 12 Noroeste 0 943.3 0.3 73
2017-08-10 07:00:00 7.3 5 Norte 12 Norte 0 943.2 0 77
2017-08-10 06:00:00 7.5 3 Norte 6 Norte 0 942.9 -0.5 74
2017-08-10 05:00:00 8 3 Norte 5 Norte 0 943 -0.4 72
2017-08-10 04:00:00 8.4 2 Nordeste 5 Este 0 943.2 0.1 72
2017-08-10 03:00:00 9 0 Calma 12 Sudeste 0 943.4 0.9 73
2017-08-10 02:00:00 10.1 4 Norte 10 Norte 0 943.4 1.5 63
2017-08-10 01:00:00 10.8 6 Norte 19 Norte 0 943.1 2.1 63
2017-08-10 00:00:00 12 9 Norte 20 Nordeste 0 942.5 2.5 58
2017-08-09 23:00:00 13 9 Norte 29 Norte 0 941.9 2.4 53
2017-08-09 22:00:00 14.7 11 Norte 30 Norte 0 941 2 44
2017-08-09 21:00:00 16.5 18 Norte 45 Norte 0 940 1.4 37
2017-08-09 20:00:00 18.2 20 Norte 48 Nordeste 0 939.5 1 38
2017-08-09 19:00:00 20 19 Nordeste 46 Nordeste 0 939 0.5 31
2017-08-09 18:00:00 20.6 18 Norte 44 Nordeste 0 938.6 0.2 27
2017-08-09 17:00:00 21.5 19 Norte 46 Norte 0 938.5 0 25
2017-08-09 16:00:00 21.1 21 Norte 43 Nordeste 0 938.5 0.2 27
2017-08-09 15:00:00 20.2 21 Norte 46 Nordeste 0 938.4 0.1 22
2017-08-09 14:00:00 19.8 17 Norte 37 Norte 0 938.5 0.5 30
2017-08-09 13:00:00 18.8 18 Norte 41 Norte 0 938.3 0.4 35
2017-08-09 12:00:00 18.3 12 Norte 32 Norte 0 938.3 0.7 40
2017-08-09 11:00:00 16.6 15 Norte 34 Norte 0 938 0.9 45
2017-08-09 10:00:00 15.2 16 Norte 31 Norte 0 937.9 0.9 49
2017-08-09 09:00:00 13.3 13 Norte 25 Noroeste 0 937.6 1 59
2017-08-09 08:00:00 10.3 8 Norte 17 Norte 0 937.1 0.5 75
2017-08-09 07:00:00 10.1 9 Nordeste 17 Norte 0 937 0.4 74
2017-08-09 06:00:00 10.4 8 Norte 14 Norte 0 936.6 0 74
2017-08-09 05:00:00 11 7 Norte 18 Nordeste 0 936.6 -0.1 76
2017-08-09 04:00:00 12 8 Norte 15 Norte 0 936.6 0 75
2017-08-09 03:00:00 12.5 7 Norte 17 Nordeste 0 936.6 0.3 75
2017-08-09 02:00:00 13.6 9 Norte 18 Nordeste 0 936.7 0.8 69
2017-08-09 01:00:00 14.8 8 Norte 31 Nordeste 0 936.6 1.1 62
2017-08-09 00:00:00 16.3 14 Norte 32 Norte 0 936.3 1.1 55
2017-08-08 23:00:00 18.7 18 Norte 32 Norte 0 935.9 1 38
2017-08-08 22:00:00 20.4 10 Norte 22 Norte 0 935.5 0.5 31
2017-08-08 21:00:00 22.6 6 Nordeste 14 Nordeste 0 935.2 -0.3 27
2017-08-08 20:00:00 24.2 4 Sudeste 19 Este 0 934.9 -0.9 24
2017-08-08 19:00:00 24.3 8 Este 23 Nordeste 0 935 -1.1 24
2017-08-08 18:00:00 24.7 5 Este 31 Nordeste 0 935.5 -1.1 23
2017-08-08 17:00:00 24.1 8 Norte 28 Nordeste 0 935.8 -1.2 23
2017-08-08 16:00:00 23.9 7 Norte 27 Noroeste 0 936.1 -1.2 25
2017-08-08 15:00:00 22.4 9 Norte 25 Nordeste 0 936.6 -0.9 28
2017-08-08 14:00:00 21.4 13 Nordeste 26 Nordeste 0 937 -0.5 29
2017-08-08 13:00:00 20.5 11 Norte 27 Norte 0 937.3 0.1 33
2017-08-08 12:00:00 18.5 13 Norte 28 Nordeste 0 937.5 0.6 39
2017-08-08 11:00:00 17.3 14 Norte 30 Norte 0 937.5 1.2 44
2017-08-08 10:00:00 15.8 12 Norte 27 Norte 0 937.2 1.2 50
2017-08-08 09:00:00 13.9 9 Norte 20 Norte 0 936.9 1.4 64
2017-08-08 08:00:00 12 11 Norte 25 Norte 0 936.3 1.1 72
2017-08-08 07:00:00 11.6 14 Norte 26 Norte 0 936 0.7 76
2017-08-08 06:00:00 11.9 6 Norte 23 Norte 0 935.5 0.4 75
2017-08-08 05:00:00 12.9 14 Norte 26 Norte 0 935.2 0.1 71
2017-08-08 04:00:00 12.9 7 Nordeste 26 Noroeste 0 935.3 0.4 74
2017-08-08 03:00:00 14.1 10 Norte 26 Noroeste 0 935.1 0.4 68
2017-08-08 02:00:00 13.7 4 Nordeste 26 Noroeste 0 935.1 1.4 74
2017-08-08 01:00:00 15.4 12 Noroeste 25 Noroeste 0 934.9 2.5 66
2017-08-08 00:00:00 16.8 11 Noroeste 35 Noroeste 0 934.7 3.5 59
2017-08-07 23:00:00 18.3 16 Noroeste 43 Noroeste 0 933.7 3.1 48
2017-08-07 22:00:00 20.2 20 Norte 44 Norte 0 932.4 1.8 45
2017-08-07 21:00:00 24.5 8 Norte 28 Oeste 0 931.2 0.4 38
2017-08-07 20:00:00 26.3 13 Oeste 27 Oeste 0 930.6 0 24
2017-08-07 19:00:00 27.2 10 Oeste 26 Sudoeste 0 930.6 -0.2 21
2017-08-07 18:00:00 27.9 12 Oeste 40 Oeste 0 930.8 -0.5 19
2017-08-07 17:00:00 29.3 14 Sudoeste 28 Oeste 0 930.6 -1.6 21
2017-08-07 16:00:00 29.3 8 Sudoeste 20 Noroeste 0 930.8 -1.9 22
2017-08-07 15:00:00 27.5 5 Sur 21 Este 0 931.3 -2.1 32
2017-08-07 14:00:00 25.8 9 Sur 20 Sudoeste 0 932.2 -1.4 40
2017-08-07 13:00:00 24 7 Oeste 15 Oeste 0 932.7 -1.1 45
2017-08-07 12:00:00 21.4 4 Sudeste 19 Nordeste 0 933.4 -0.7 52
2017-08-07 11:00:00 19.3 6 Este 17 Nordeste 0 933.6 -0.4 59
2017-08-07 10:00:00 17.2 8 Nordeste 19 Norte 0 933.8 -0.2 66
2017-08-07 09:00:00 16 9 Nordeste 18 Norte 0 934.1 0 71
2017-08-07 08:00:00 13.8 4 Norte 13 Nordeste 0 934 -0.6 78
2017-08-07 07:00:00 12.9 4 Nordeste 11 Norte 0 934 -1.1 81
2017-08-07 06:00:00 13.6 5 Norte 10 Norte 0 934.1 -1.4 78
2017-08-07 05:00:00 14.1 2 Norte 13 Nordeste 0 934.6 -1.1 77
2017-08-07 04:00:00 14.5 5 Norte 12 Norte 0 935.1 -0.5 76
2017-08-07 03:00:00 15.3 5 Nordeste 21 Nordeste 0 935.5 -0.2 73
2017-08-07 02:00:00 15.9 10 Nordeste 23 Nordeste 0 935.7 0.5 70
2017-08-07 01:00:00 17.1 12 Nordeste 25 Nordeste 0 935.6 0.8 65
2017-08-07 00:00:00 18.8 13 Este 27 Este 0 935.7 1.2 58
2017-08-06 23:00:00 21.1 13 Este 24 Este 0 935.2 0.8 49
2017-08-06 22:00:00 23.1 10 Este 18 Nordeste 0 934.8 0.1 40
2017-08-06 21:00:00 25.6 8 Este 18 Nordeste 0 934.5 -0.8 33
2017-08-06 20:00:00 27.6 9 Este 24 Este 0 934.4 -1.3 30
2017-08-06 19:00:00 28.5 12 Nordeste 26 Nordeste 0 934.7 -1.6 27
2017-08-06 18:00:00 27.9 12 Este 30 Nordeste 0 935.3 -1.5 29
2017-08-06 17:00:00 27 13 Este 33 Este 0 935.7 -1.8 30
2017-08-06 16:00:00 26.3 15 Este 33 Este 0 936.3 -1.9 33
2017-08-06 15:00:00 25.2 16 Este 36 Este 0 936.8 -2 36
2017-08-06 14:00:00 23.4 17 Este 41 Este 0 937.5 -1.2 41
2017-08-06 13:00:00 22.2 19 Nordeste 39 Este 0 938.2 -0.7 45
2017-08-06 12:00:00 20.9 20 Este 39 Este 0 938.8 0.1 49
2017-08-06 11:00:00 -- -- -- -- -- -- -- -- --
2017-08-06 10:00:00 -- -- -- -- -- -- -- -- --
2017-08-06 09:00:00 -- -- -- -- -- -- -- -- --
2017-08-06 08:00:00 -- -- -- -- -- -- -- -- --
2017-08-06 07:00:00 -- -- -- -- -- -- -- -- --
2017-08-06 06:00:00 -- -- -- -- -- -- -- -- --
2017-08-06 05:00:00 -- -- -- -- -- -- -- -- --
2017-08-06 04:00:00 -- -- -- -- -- -- -- -- --
2017-08-06 03:00:00 -- -- -- -- -- -- -- -- --
2017-08-06 02:00:00 -- -- -- -- -- -- -- -- --
2017-08-06 01:00:00 -- -- -- -- -- -- -- -- --
2017-08-06 00:00:00 -- -- -- -- -- -- -- -- --
2017-08-05 23:00:00 -- -- -- -- -- -- -- -- --
2017-08-05 22:00:00 -- -- -- -- -- -- -- -- --
2017-08-05 21:00:00 -- -- -- -- -- -- -- -- --
2017-08-05 20:00:00 -- -- -- -- -- -- -- -- --
2017-08-05 19:00:00 -- -- -- -- -- -- -- -- --
2017-08-05 18:00:00 -- -- -- -- -- -- -- -- --
2017-08-05 17:00:00 -- -- -- -- -- -- -- -- --
2017-08-05 16:00:00 -- -- -- -- -- -- -- -- --
2017-08-05 15:00:00 -- -- -- -- -- -- -- -- --
2017-08-05 14:00:00 -- -- -- -- -- -- -- -- --
2017-08-05 13:00:00 -- -- -- -- -- -- -- -- --
2017-08-05 12:00:00 -- -- -- -- -- -- -- -- --
2017-08-05 11:00:00 -- -- -- -- -- -- -- -- --
2017-08-05 10:00:00 -- -- -- -- -- -- -- -- --
2017-08-05 09:00:00 -- -- -- -- -- -- -- -- --
2017-08-05 08:00:00 -- -- -- -- -- -- -- -- --
2017-08-05 07:00:00 -- -- -- -- -- -- -- -- --
2017-08-05 06:00:00 -- -- -- -- -- -- -- -- --
2017-08-05 05:00:00 -- -- -- -- -- -- -- -- --
2017-08-05 04:00:00 -- -- -- -- -- -- -- -- --
2017-08-05 03:00:00 -- -- -- -- -- -- -- -- --
2017-08-05 02:00:00 -- -- -- -- -- -- -- -- --
2017-08-05 01:00:00 -- -- -- -- -- -- -- -- --
2017-08-05 00:00:00 -- -- -- -- -- -- -- -- --
2017-08-04 23:00:00 -- -- -- -- -- -- -- -- --
2017-08-04 22:00:00 -- -- -- -- -- -- -- -- --
2017-08-04 21:00:00 -- -- -- -- -- -- -- -- --
2017-08-04 20:00:00 -- -- -- -- -- -- -- -- --
2017-08-04 19:00:00 -- -- -- -- -- -- -- -- --
2017-08-04 18:00:00 -- -- -- -- -- -- -- -- --
2017-08-04 17:00:00 -- -- -- -- -- -- -- -- --
2017-08-04 16:00:00 -- -- -- -- -- -- -- -- --
2017-08-04 15:00:00 -- -- -- -- -- -- -- -- --
2017-08-04 14:00:00 -- -- -- -- -- -- -- -- --
2017-08-04 13:00:00 -- -- -- -- -- -- -- -- --
2017-08-04 12:00:00 -- -- -- -- -- -- -- -- --
2017-08-04 11:00:00 -- -- -- -- -- -- -- -- --
2017-08-04 10:00:00 -- -- -- -- -- -- -- -- --
2017-08-04 09:00:00 -- -- -- -- -- -- -- -- --
2017-08-04 08:00:00 -- -- -- -- -- -- -- -- --
2017-08-04 07:00:00 -- -- -- -- -- -- -- -- --
2017-08-04 06:00:00 -- -- -- -- -- -- -- -- --
2017-08-04 05:00:00 -- -- -- -- -- -- -- -- --
2017-08-04 04:00:00 -- -- -- -- -- -- -- -- --
2017-08-04 03:00:00 -- -- -- -- -- -- -- -- --
2017-08-04 02:00:00 -- -- -- -- -- -- -- -- --
2017-08-04 01:00:00 -- -- -- -- -- -- -- -- --
2017-08-04 00:00:00 -- -- -- -- -- -- -- -- --
2017-08-03 23:00:00 -- -- -- -- -- -- -- -- --
2017-08-03 22:00:00 -- -- -- -- -- -- -- -- --
2017-08-03 21:00:00 -- -- -- -- -- -- -- -- --
2017-08-03 20:00:00 -- -- -- -- -- -- -- -- --
2017-08-03 19:00:00 -- -- -- -- -- -- -- -- --
2017-08-03 18:00:00 -- -- -- -- -- -- -- -- --
2017-08-03 17:00:00 -- -- -- -- -- -- -- -- --
2017-08-03 16:00:00 -- -- -- -- -- -- -- -- --
2017-08-03 15:00:00 -- -- -- -- -- -- -- -- --
2017-08-03 14:00:00 -- -- -- -- -- -- -- -- --
2017-08-03 13:00:00 -- -- -- -- -- -- -- -- --
2017-08-03 12:00:00 -- -- -- -- -- -- -- -- --
2017-08-03 11:00:00 -- -- -- -- -- -- -- -- --
2017-08-03 10:00:00 -- -- -- -- -- -- -- -- --
2017-08-03 09:00:00 -- -- -- -- -- -- -- -- --
2017-08-03 08:00:00 -- -- -- -- -- -- -- -- --
2017-08-03 07:00:00 -- -- -- -- -- -- -- -- --
2017-08-03 06:00:00 -- -- -- -- -- -- -- -- --
2017-08-03 05:00:00 -- -- -- -- -- -- -- -- --
2017-08-03 04:00:00 -- -- -- -- -- -- -- -- --
2017-08-03 03:00:00 -- -- -- -- -- -- -- -- --
2017-08-03 02:00:00 -- -- -- -- -- -- -- -- --
2017-08-03 01:00:00 -- -- -- -- -- -- -- -- --
2017-08-03 00:00:00 -- -- -- -- -- -- -- -- --
2017-08-02 23:00:00 -- -- -- -- -- -- -- -- --
2017-08-02 22:00:00 -- -- -- -- -- -- -- -- --
2017-08-02 21:00:00 -- -- -- -- -- -- -- -- --
2017-08-02 20:00:00 -- -- -- -- -- -- -- -- --
2017-08-02 19:00:00 -- -- -- -- -- -- -- -- --
2017-08-02 18:00:00 -- -- -- -- -- -- -- -- --
2017-08-02 17:00:00 -- -- -- -- -- -- -- -- --
2017-08-02 16:00:00 -- -- -- -- -- -- -- -- --
2017-08-02 15:00:00 -- -- -- -- -- -- -- -- --
2017-08-02 14:00:00 -- -- -- -- -- -- -- -- --
2017-08-02 13:00:00 -- -- -- -- -- -- -- -- --
2017-08-02 12:00:00 -- -- -- -- -- -- -- -- --
2017-08-02 11:00:00 -- -- -- -- -- -- -- -- --
2017-08-02 10:00:00 -- -- -- -- -- -- -- -- --
2017-08-02 09:00:00 15.8 6 Norte 12 Noroeste 0 938.1 1 64
2017-08-02 08:00:00 13.7 4 Norte 11 Norte 0 937.9 0.8 70
2017-08-02 07:00:00 13.2 3 Norte 11 Norte 0 937.7 0.5 71
2017-08-02 06:00:00 13.1 0 Calma 8 Norte 0 937.1 -0.6 71
2017-08-02 05:00:00 13.7 4 Noroeste 14 Noroeste 0 937.1 -0.2 69
2017-08-02 04:00:00 15.9 5 Norte 12 Noroeste 0 937.2 0.2 57
2017-08-02 03:00:00 15.6 8 Este 15 Este 0 937.7 1 61
2017-08-02 02:00:00 18 9 Norte 21 Noroeste 0 937.3 1.1 50
2017-08-02 01:00:00 19.3 13 Noroeste 29 Noroeste 0 937 1.5 45
2017-08-02 00:00:00 20.4 9 Noroeste 21 Noroeste 0 936.7 2.2 40
2017-08-01 23:00:00 22.2 6 Oeste 18 Oeste 0 936.2 2.4 27
2017-08-01 22:00:00 24.5 8 Oeste 24 Oeste 0 935.5 2 21
2017-08-01 21:00:00 27 10 Oeste 27 Oeste 0 934.5 1.4 16
2017-08-01 20:00:00 28.6 11 Oeste 26 Sudoeste 0 933.8 0.5 14
2017-08-01 19:00:00 29.5 12 Sudoeste 28 Sudoeste 0 933.5 0.1 14
2017-08-01 18:00:00 28.9 5 Sur 21 Norte 0 933.1 -0.4 20
2017-08-01 17:00:00 28.7 6 Oeste 21 Sur 0 933.3 -0.5 23
2017-08-01 16:00:00 27.5 6 Sur 28 Sur 0 933.4 -0.6 27
2017-08-01 15:00:00 27 9 Sur 26 Sur 0 933.5 -0.6 29
2017-08-01 14:00:00 25.6 10 Sur 23 Sur 0 933.8 -0.2 33
2017-08-01 13:00:00 23.8 7 Este 17 Este 0 934 0.1 42
2017-08-01 12:00:00 22.2 8 Nordeste 18 Norte 0 934.1 0.4 51
2017-08-01 11:00:00 20.4 6 Norte 17 Nordeste 0 934 1.1 58
2017-08-01 10:00:00 18.8 8 Nordeste 21 Nordeste 0 933.9 1.7 65
2017-08-01 09:00:00 17.3 9 Norte 19 Nordeste 0 933.7 1.7 67
2017-08-01 08:00:00 14.5 8 Norte 16 Norte 0 932.9 1.1 76
2017-08-01 07:00:00 14.6 7 Norte 15 Norte 0 932.2 0.7 79
2017-08-01 06:00:00 15.4 7 Norte 15 Norte 0 932 0.3 78
2017-08-01 05:00:00 15.7 7 Norte 12 Noroeste 0 931.8 0.3 74
2017-08-01 04:00:00 17 8 Noroeste 16 Noroeste 0 931.5 0.5 66
2017-08-01 03:00:00 18 7 Noroeste 14 Noroeste 0 931.7 0.3 60
2017-08-01 02:00:00 19.1 7 Oeste 14 Oeste 0 931.5 0.1 50
2017-08-01 01:00:00 19.6 7 Oeste 15 Noroeste 0 931 0.3 46
2017-08-01 00:00:00 20.7 4 Oeste 13 Oeste 0 931.4 1.3 40
2017-07-31 23:00:00 21.1 7 Sudoeste 13 Oeste 0 931.4 1.5 39
2017-07-31 22:00:00 21.6 6 Oeste 17 Oeste 0 930.7 0.7 40
2017-07-31 21:00:00 22.6 7 Oeste 21 Oeste 0 930.1 0 33
2017-07-31 20:00:00 23.4 12 Oeste 24 Oeste 0 929.9 -0.4 32
2017-07-31 19:00:00 24.4 5 Oeste 16 Sudoeste 0 930 -0.5 23
2017-07-31 18:00:00 24.2 6 Sudoeste 19 Oeste 0 930.1 -0.9 22
2017-07-31 17:00:00 22.2 5 Oeste 13 Oeste 0 930.3 -0.9 41
2017-07-31 16:00:00 21.2 4 Noroeste 18 Sudoeste 0 930.5 -0.6 47
2017-07-31 15:00:00 21.2 7 Oeste 23 Oeste 0 931 -0.1 49
2017-07-31 14:00:00 20.8 8 Oeste 22 Noroeste 0 931.2 0.1 50
2017-07-31 13:00:00 19 8 Oeste 21 Oeste 0 931.1 0.2 59
2017-07-31 12:00:00 19.2 4 Norte 12 Norte 0 931.1 0.1 55
2017-07-31 11:00:00 18.5 5 Norte 16 Nordeste 0 931.1 0 57
2017-07-31 10:00:00 17 10 Nordeste 20 Norte 0 930.9 0.3 64
2017-07-31 09:00:00 15.4 8 Nordeste 13 Nordeste 0 931 0.4 72
2017-07-31 08:00:00 14.3 8 Noroeste 16 Noroeste 0 931.1 -0.1 76
2017-07-31 07:00:00 13.7 6 Norte 15 Nordeste 0 930.6 -0.7 78
2017-07-31 06:00:00 13.3 6 Norte 13 Norte 0 930.6 -0.9 81
2017-07-31 05:00:00 14.1 7 Norte 14 Nordeste 0 931.2 -0.3 78
2017-07-31 04:00:00 14.9 7 Nordeste 14 Norte 0 931.3 -0.2 75
2017-07-31 03:00:00 15.7 6 Nordeste 21 Nordeste 0 931.5 0.1 72
2017-07-31 02:00:00 17.1 8 Norte 18 Norte 0 931.5 0.1 58
2017-07-31 01:00:00 18.1 6 Norte 19 Norte 0 931.5 0.9 53
2017-07-31 00:00:00 20 9 Norte 16 Norte 0 931.4 0.7 46
2017-07-30 23:00:00 21.8 6 Norte 17 Noroeste 0 931.4 0.8 39
2017-07-30 22:00:00 23.9 10 Noroeste 23 Noroeste 0 930.6 -0.3 32
2017-07-30 21:00:00 26.9 9 Oeste 21 Oeste 0 930.7 -0.4 22
2017-07-30 20:00:00 28.5 12 Oeste 26 Noroeste 0 930.6 -0.6 20
2017-07-30 19:00:00 29.1 14 Oeste 37 Oeste 0 930.9 -0.7 16
2017-07-30 18:00:00 29.3 16 Sudoeste 39 Oeste 0 931.1 -0.8 17
2017-07-30 17:00:00 30.2 13 Oeste 34 Oeste 0 931.2 -1.1 18
2017-07-30 16:00:00 30.2 14 Oeste 33 Sudoeste 0 931.6 -1.3 18
2017-07-30 15:00:00 29.6 13 Oeste 35 Sudoeste 0 931.9 -1.7 16
2017-07-30 14:00:00 28.2 15 Sudoeste 36 Oeste 0 932.3 -1.4 14
2017-07-30 13:00:00 26.3 8 Sudoeste 24 Sudoeste 0 932.9 -1.1 29
2017-07-30 12:00:00 23.6 8 Sur 19 Sudoeste 0 933.6 -0.5 41
2017-07-30 11:00:00 21.4 6 Sudoeste 13 Sudoeste 0 933.7 -0.2 49
2017-07-30 10:00:00 19.5 5 Norte 11 Este 0 934 0.2 59
2017-07-30 09:00:00 17.5 4 Este 9 Este 0 934.1 0 64
2017-07-30 08:00:00 15.7 0 Calma 4 Este 0 933.9 -0.1 73
2017-07-30 07:00:00 15 0 Calma 10 Este 0 933.8 -0.5 76
2017-07-30 06:00:00 15.8 0 Calma 8 Nordeste 0 934.1 -0.5 72
2017-07-30 05:00:00 16.9 4 Nordeste 8 Norte 0 934 -0.6 65
2017-07-30 04:00:00 17.4 3 Norte 9 Nordeste 0 934.3 -0.3 63
2017-07-30 03:00:00 20.3 4 Sudoeste 11 Noroeste 0 934.6 0.1 51
2017-07-30 02:00:00 21.2 2 Noroeste 19 Oeste 0 934.6 0.1 47
2017-07-30 01:00:00 22.5 8 Oeste 26 Oeste 0 934.6 0.4 42
2017-07-30 00:00:00 24.4 11 Oeste 23 Oeste 0 934.5 0.7 33
2017-07-29 23:00:00 25.9 8 Sudoeste 26 Oeste 0 934.5 1.1 32
2017-07-29 22:00:00 27.8 9 Oeste 29 Oeste 0 934.2 1.1 26
2017-07-29 21:00:00 29.7 14 Oeste 33 Noroeste 0 933.8 0.6 19
2017-07-29 20:00:00 31.8 13 Oeste 37 Oeste 0 933.4 -0.2 17
2017-07-29 19:00:00 32.4 13 Oeste 42 Oeste 0 933.1 -0.9 22
2017-07-29 18:00:00 33.2 19 Sudoeste 36 Sudoeste 0 933.2 -1.4 19
2017-07-29 17:00:00 33.4 15 Sudoeste 37 Sudoeste 0 933.6 -1.8 17
2017-07-29 16:00:00 32.9 9 Sudoeste 29 Sudoeste 0 934 -2.1 19
2017-07-29 15:00:00 30.7 5 Sudoeste 20 Sudoeste 0 934.6 -1.8 24
2017-07-29 14:00:00 28.8 6 Sur 17 Oeste 0 935.4 -1.2 30
2017-07-29 13:00:00 26.4 7 Noroeste 18 Oeste 0 936.1 -0.4 36
2017-07-29 12:00:00 25.2 5 Este 16 Sudeste 0 936.4 0.2 40
2017-07-29 11:00:00 23 5 Nordeste 13 Este 0 936.6 0.7 51
2017-07-29 10:00:00 22 3 Sur 11 Este 0 936.5 1 61
2017-07-29 09:00:00 19.9 5 Este 10 Este 0 936.2 0.7 68
2017-07-29 08:00:00 17.6 2 Nordeste 4 Norte 0 935.9 0.5 72
2017-07-29 07:00:00 16.6 2 Sudoeste 6 Sudeste 0 935.5 -0.2 76
2017-07-29 06:00:00 16.9 4 Sudeste 8 Sudeste 0 935.5 -0.5 74
2017-07-29 05:00:00 17.7 4 Este 8 Este 0 935.4 -0.4 69
2017-07-29 04:00:00 18.3 0 Calma 5 Sudeste 0 935.7 0.2 64
2017-07-29 03:00:00 19.5 0 Calma 8 Nordeste 0 936 0.4 62
2017-07-29 02:00:00 21.4 5 Norte 20 Nordeste 0 935.8 0.3 57
2017-07-29 01:00:00 22.2 11 Nordeste 24 Noroeste 0 935.5 0.6 49
2017-07-29 00:00:00 24 10 Noroeste 28 Norte 0 935.6 1.3 40
2017-07-28 23:00:00 25.6 12 Noroeste 28 Noroeste 0 935.5 1.6 37
2017-07-28 22:00:00 27.5 11 Norte 22 Noroeste 0 934.9 1 31
2017-07-28 21:00:00 31.4 6 Oeste 14 Noroeste 0 934.3 0 16
2017-07-28 20:00:00 33.9 4 Oeste 11 Noroeste 0 933.9 -0.9 12
2017-07-28 19:00:00 31.5 7 Este 19 Sudeste 0 933.9 -1.5 15
2017-07-28 18:00:00 33.4 8 Sur 19 Sudoeste 0 934.3 -1.6 11
2017-07-28 17:00:00 32.7 5 Sudoeste 21 Sudoeste 0 934.8 -1.6 14
2017-07-28 16:00:00 31.1 5 Este 17 Sur 0 935.4 -1.3 13
2017-07-28 15:00:00 30.3 3 Sudeste 15 Sur 0 935.9 -0.9 14
2017-07-28 14:00:00 27.9 5 Sudeste 17 Este 0 936.4 -0.6 22
2017-07-28 13:00:00 25.3 5 Este 18 Este 0 936.7 -0.3 38
2017-07-28 12:00:00 24.2 5 Nordeste 16 Nordeste 0 936.8 0.2 48
2017-07-28 11:00:00 22 7 Este 18 Este 0 937 0.5 57
2017-07-28 10:00:00 20.7 8 Nordeste 18 Nordeste 0 937 0.6 63
2017-07-28 09:00:00 18.6 8 Nordeste 15 Nordeste 0 936.6 0.7 72
2017-07-28 08:00:00 17.3 3 Nordeste 7 Nordeste 0 936.5 0.6 79
2017-07-28 07:00:00 15.3 3 Norte 5 Este 0 936.4 0.7 85
2017-07-28 06:00:00 16.6 0 Calma 4 Sudoeste 0 935.9 0.4 78
2017-07-28 05:00:00 17.1 0 Calma 4 Este 0 935.9 0.6 78
2017-07-28 04:00:00 18.2 2 Este 9 Noroeste 0 935.7 0.8 75
2017-07-28 03:00:00 19.8 6 Noroeste 17 Norte 0 935.5 0.9 70
2017-07-28 02:00:00 20.7 6 Norte 23 Norte 0 935.3 0.9 68
2017-07-28 01:00:00 22.1 10 Noroeste 24 Norte 0 934.9 1.1 63
2017-07-28 00:00:00 23.5 7 Noroeste 22 Noroeste 0 934.6 1.8 56
2017-07-27 23:00:00 25.2 11 Noroeste 24 Noroeste 0 934.4 2.3 49
2017-07-27 22:00:00 27.3 12 Norte 30 Norte 0 933.8 2 40
2017-07-27 21:00:00 30 15 Norte 32 Noroeste 0 932.8 0.7 31
2017-07-27 20:00:00 33.9 9 Norte 33 Noroeste 0 932.1 -0.5 19
2017-07-27 19:00:00 34.3 17 Oeste 36 Oeste 0 931.8 -1.3 15
2017-07-27 18:00:00 34.9 15 Oeste 34 Noroeste 0 932.1 -1.7 13
2017-07-27 17:00:00 34.5 12 Oeste 31 Oeste 0 932.6 -1.8 12
2017-07-27 16:00:00 33.4 5 Sudoeste 19 Sudeste 0 933.1 -1.8 14
2017-07-27 15:00:00 31.2 6 Sur 17 Sudeste 0 933.8 -1.5 17
2017-07-27 14:00:00 29.7 4 Sudeste 17 Oeste 0 934.4 -0.9 20
2017-07-27 13:00:00 27.9 6 Sudeste 16 Sur 0 934.9 -0.7 27
2017-07-27 12:00:00 26.2 4 Sur 11 Sudeste 0 935.3 -0.2 32
2017-07-27 11:00:00 23.4 4 Sur 9 Nordeste 0 935.3 0 42
2017-07-27 10:00:00 21.4 4 Nordeste 10 Norte 0 935.6 0.8 48
2017-07-27 09:00:00 19.4 4 Este 6 Nordeste 0 935.5 0.7 53
2017-07-27 08:00:00 16.9 3 Norte 7 Nordeste 0 935.3 0.8 58
2017-07-27 07:00:00 15.2 3 Norte 7 Nordeste 0 934.8 0.2 62
2017-07-27 06:00:00 16 0 Calma 6 Norte 0 934.8 0.1 59
2017-07-27 05:00:00 17.5 3 Norte 6 Norte 0 934.5 -0.2 51
2017-07-27 04:00:00 19.2 3 Nordeste 16 Nordeste 0 934.6 -0.3 45
2017-07-27 03:00:00 20.9 7 Norte 15 Norte 0 934.7 0 38
2017-07-27 02:00:00 21 9 Norte 16 Norte 0 934.7 0.3 37
2017-07-27 01:00:00 21.3 7 Nordeste 25 Noroeste 0 934.9 1.1 35
2017-07-27 00:00:00 24 13 Noroeste 35 Noroeste 0 934.7 1.3 28
2017-07-26 23:00:00 25.4 15 Noroeste 32 Noroeste 0 934.4 1.5 27
2017-07-26 22:00:00 27.2 9 Norte 32 Norte 0 933.8 0.7 25
2017-07-26 21:00:00 29.5 17 Norte 36 Norte 0 933.4 -0.1 21
2017-07-26 20:00:00 32.6 8 Sur 23 Sur 0 932.9 -1.2 17
2017-07-26 19:00:00 33 10 Sur 28 Sur 0 933.1 -1.8 17
2017-07-26 18:00:00 32.4 10 Sur 27 Sur 0 933.5 -1.9 18
2017-07-26 17:00:00 31.5 8 Sur 24 Sudoeste 0 934.1 -1.9 20
2017-07-26 16:00:00 30.1 9 Sudoeste 23 Sudoeste 0 934.9 -1.7 21
2017-07-26 15:00:00 28.5 6 Sudoeste 31 Nordeste 0 935.4 -1.4 25
2017-07-26 14:00:00 27.3 10 Sur 25 Sur 0 936 -1.2 28
2017-07-26 13:00:00 24.9 8 Sudoeste 15 Sudoeste 0 936.6 -0.8 34
2017-07-26 12:00:00 22.5 6 Sudoeste 15 Sudoeste 0 936.8 -0.6 40
2017-07-26 11:00:00 20.7 4 Sur 13 Sudeste 0 937.2 0.2 44
2017-07-26 10:00:00 18.6 3 Sudoeste 8 Este 0 937.4 0.6 51
2017-07-26 09:00:00 16.6 3 Norte 10 Norte 0 937.4 0.5 59
2017-07-26 08:00:00 15 2 Nordeste 4 Nordeste 0 937 0.2 63
2017-07-26 07:00:00 13.7 2 Norte 6 Norte 0 936.8 -0.4 66
2017-07-26 06:00:00 14.1 3 Norte 7 Nordeste 0 936.9 -0.1 64
2017-07-26 05:00:00 14.7 3 Norte 8 Nordeste 0 936.8 -0.2 61
2017-07-26 04:00:00 15.7 3 Nordeste 12 Este 0 937.2 0 56
2017-07-26 03:00:00 16.3 3 Nordeste 14 Nordeste 0 937 -0.1 53
2017-07-26 02:00:00 17 8 Nordeste 17 Este 0 937 0.5 50
2017-07-26 01:00:00 18.2 5 Nordeste 20 Este 0 937.2 1.4 48
2017-07-26 00:00:00 19.5 11 Este 32 Este 0 937.1 1.9 44
2017-07-25 23:00:00 21.3 11 Este 27 Este 0 936.5 1.6 40
2017-07-25 22:00:00 23.7 15 Este 32 Este 0 935.8 0.6 34
2017-07-25 21:00:00 26.3 7 Nordeste 18 Nordeste 0 935.2 -0.4 28
2017-07-25 20:00:00 27.8 6 Sudeste 20 Nordeste 0 934.9 -1.3 24
2017-07-25 19:00:00 27.8 6 Este 18 Sudeste 0 935.2 -1.6 23
2017-07-25 18:00:00 27.9 6 Este 32 Este 0 935.6 -1.8 23
2017-07-25 17:00:00 26.8 8 Este 17 Este 0 936.2 -1.8 26
2017-07-25 16:00:00 25.9 6 Nordeste 24 Este 0 936.8 -1.6 28
2017-07-25 15:00:00 24.7 9 Este 18 Este 0 937.4 -1.5 30
2017-07-25 14:00:00 23.3 9 Nordeste 19 Norte 0 938 -1.3 33
2017-07-25 13:00:00 22.3 8 Nordeste 19 Este 0 938.4 -1.2 34
2017-07-25 12:00:00 20.1 8 Este 18 Este 0 938.9 -0.6 44
2017-07-25 11:00:00 18.4 6 Este 19 Nordeste 0 939.3 -0.3 53
2017-07-25 10:00:00 16.6 9 Nordeste 21 Este 0 939.6 0.1 60
2017-07-25 09:00:00 15.4 8 Este 15 Este 0 939.5 0.2 69
2017-07-25 08:00:00 13.8 6 Norte 12 Norte 0 939.6 0.1 74
2017-07-25 07:00:00 12 5 Norte 7 Norte 0 939.5 -0.3 81
2017-07-25 06:00:00 12.4 4 Norte 7 Nordeste 0 939.3 -0.8 79
2017-07-25 05:00:00 13.3 4 Nordeste 9 Este 0 939.5 -0.7 77
2017-07-25 04:00:00 14 4 Sudeste 8 Este 0 939.8 -0.6 76
2017-07-25 03:00:00 14.1 3 Nordeste 11 Nordeste 0 940.1 -0.1 72
2017-07-25 02:00:00 15 8 Nordeste 21 Norte 0 940.2 0.2 64
2017-07-25 01:00:00 15.7 5 Nordeste 26 Norte 0 940.4 1.4 62
2017-07-25 00:00:00 17.3 19 Nordeste 34 Norte 0 940.2 1.6 55
2017-07-24 23:00:00 18.9 13 Norte 36 Norte 0 940 1.7 51
2017-07-24 22:00:00 20.7 18 Norte 36 Norte 0 939 0.9 44
2017-07-24 21:00:00 23.4 16 Nordeste 36 Nordeste 0 938.6 0.5 38
2017-07-24 20:00:00 25.6 21 Nordeste 37 Nordeste 0 938.3 -0.2 32
2017-07-24 19:00:00 27.1 22 Nordeste 36 Nordeste 0 938.1 -0.9 30
2017-07-24 18:00:00 28.7 10 Nordeste 27 Este 0 938.1 -1.3 24
2017-07-24 17:00:00 28.3 6 Norte 27 Nordeste 0 938.5 -1 26
2017-07-24 16:00:00 28.1 10 Norte 29 Norte 0 939 -0.8 24
2017-07-24 15:00:00 27 9 Norte 23 Norte 0 939.4 -0.8 22
2017-07-24 14:00:00 26.2 12 Noroeste 26 Noroeste 0 939.5 -0.8 28
2017-07-24 13:00:00 24.5 10 Norte 33 Norte 0 939.8 -0.4 34
2017-07-24 12:00:00 23.6 10 Norte 27 Norte 0 940.2 0.2 39
2017-07-24 11:00:00 22.3 12 Norte 26 Norte 0 940.3 0.5 45
2017-07-24 10:00:00 20.9 15 Norte 28 Noroeste 0 940.2 0.5 51
2017-07-24 09:00:00 19 13 Noroeste 25 Noroeste 0 940 0.5 60
2017-07-24 08:00:00 17 3 Oeste 8 Oeste 0 939.8 0.3 69
2017-07-24 07:00:00 14.9 3 Sudoeste 8 Nordeste 0 939.7 0.3 79
2017-07-24 06:00:00 14.9 2 Nordeste 8 Noroeste 0 939.5 0 80
2017-07-24 05:00:00 15.3 4 Este 8 Este 0 939.5 -0.1 79
2017-07-24 04:00:00 15.6 4 Norte 14 Norte 0 939.4 0.1 78
2017-07-24 03:00:00 18 8 Norte 31 Noroeste 0 939.5 0.4 67
2017-07-24 02:00:00 18.8 13 Noroeste 28 Noroeste 0 939.6 1 64
2017-07-24 01:00:00 19.8 13 Norte 27 Noroeste 0 939.3 1.7 59
2017-07-24 00:00:00 20.8 13 Norte 36 Noroeste 0 939.1 1.9 55
2017-07-23 23:00:00 22.2 17 Norte 46 Noroeste 0 938.6 2.2 50
2017-07-23 22:00:00 23.8 19 Noroeste 42 Noroeste 0 937.6 1.2 45
2017-07-23 21:00:00 26.4 18 Norte 43 Norte 0 937.2 0.6 36
2017-07-23 20:00:00 28.8 16 Noroeste 38 Norte 0 936.4 -0.6 28
2017-07-23 19:00:00 30.2 15 Norte 32 Noroeste 0 936.4 -1.2 24
2017-07-23 18:00:00 30.1 9 Norte 30 Nordeste 0 936.6 -1.6 21
2017-07-23 17:00:00 30.1 8 Sur 25 Este 0 937 -1.8 20
2017-07-23 16:00:00 28.9 5 Norte 16 Este 0 937.6 -1.4 21
2017-07-23 15:00:00 28.1 4 Sudeste 19 Sudoeste 0 938.2 -1 23
2017-07-23 14:00:00 26.5 5 Norte 21 Norte 0 938.8 -0.4 28
2017-07-23 13:00:00 25.1 5 Noroeste 17 Nordeste 0 939 -0.3 33
2017-07-23 12:00:00 22.4 5 Este 15 Este 0 939.2 0 45
2017-07-23 11:00:00 20.1 6 Nordeste 15 Nordeste 0 939.2 0.2 56
2017-07-23 10:00:00 18.2 8 Nordeste 19 Nordeste 0 939.3 0.9 62
2017-07-23 09:00:00 15.9 9 Nordeste 17 Norte 0 939.2 1 71
2017-07-23 08:00:00 14.2 5 Norte 13 Este 0 939 1 76
2017-07-23 07:00:00 13 3 Nordeste 8 Norte 0 938.4 0.2 81
2017-07-23 06:00:00 13.7 5 Norte 13 Nordeste 0 938.2 0.3 78
2017-07-23 05:00:00 13.9 6 Norte 17 Este 0 938 0.4 77
2017-07-23 04:00:00 14.7 6 Nordeste 12 Nordeste 0 938.2 1.1 74
2017-07-23 03:00:00 15.6 4 Norte 21 Este 0 937.9 1.4 63
2017-07-23 02:00:00 17 9 Norte 24 Nordeste 0 937.6 1.5 56
2017-07-23 01:00:00 18.5 13 Norte 36 Noroeste 0 937.1 2.1 47
2017-07-23 00:00:00 19.6 16 Norte 40 Noroeste 0 936.5 2.3 40